sensor_id;sensor_type;location;lat;lon;timestamp;pressure;altitude;pressure_sealevel;temperature;humidity
55592;BME280;41454;53.396;-1.510;2023-07-22T00:01:35;99780.61;;;14.21;100.00
55592;BME280;41454;53.396;-1.510;2023-07-22T00:04:01;99779.88;;;13.59;100.00
55592;BME280;41454;53.396;-1.510;2023-07-22T00:06:28;99781.72;;;14.19;100.00
55592;BME280;41454;53.396;-1.510;2023-07-22T00:08:55;99777.88;;;14.11;100.00
55592;BME280;41454;53.396;-1.510;2023-07-22T00:11:21;99770.02;;;14.49;100.00
55592;BME280;41454;53.396;-1.510;2023-07-22T00:13:48;99763.71;;;15.14;100.00
55592;BME280;41454;53.396;-1.510;2023-07-22T00:16:15;99757.94;;;15.22;100.00
55592;BME280;41454;53.396;-1.510;2023-07-22T00:18:42;99756.62;;;15.31;100.00
55592;BME280;41454;53.396;-1.510;2023-07-22T00:21:08;99755.03;;;14.67;100.00
55592;BME280;41454;53.396;-1.510;2023-07-22T00:23:35;99754.22;;;14.77;100.00
55592;BME280;41454;53.396;-1.510;2023-07-22T00:26:02;99753.55;;;13.85;100.00
55592;BME280;41454;53.396;-1.510;2023-07-22T00:28:28;99750.42;;;13.72;100.00
55592;BME280;41454;53.396;-1.510;2023-07-22T00:30:55;99744.79;;;14.32;100.00
55592;BME280;41454;53.396;-1.510;2023-07-22T00:33:22;99748.21;;;14.08;100.00
55592;BME280;41454;53.396;-1.510;2023-07-22T00:35:48;99751.27;;;14.21;100.00
55592;BME280;41454;53.396;-1.510;2023-07-22T00:38:15;99747.06;;;13.56;100.00
55592;BME280;41454;53.396;-1.510;2023-07-22T00:40:43;99747.82;;;13.07;100.00
55592;BME280;41454;53.396;-1.510;2023-07-22T00:43:10;99744.78;;;13.50;100.00
55592;BME280;41454;53.396;-1.510;2023-07-22T00:45:37;99741.65;;;13.08;100.00
55592;BME280;41454;53.396;-1.510;2023-07-22T00:48:05;99738.78;;;13.32;100.00
55592;BME280;41454;53.396;-1.510;2023-07-22T00:50:33;99742.42;;;13.15;100.00
55592;BME280;41454;53.396;-1.510;2023-07-22T00:53:01;99738.32;;;13.49;100.00
55592;BME280;41454;53.396;-1.510;2023-07-22T00:55:28;99733.28;;;13.25;100.00
55592;BME280;41454;53.396;-1.510;2023-07-22T00:57:55;99728.48;;;13.34;100.00
55592;BME280;41454;53.396;-1.510;2023-07-22T01:00:22;99727.64;;;13.42;100.00
55592;BME280;41454;53.396;-1.510;2023-07-22T01:02:49;99720.32;;;13.54;100.00
55592;BME280;41454;53.396;-1.510;2023-07-22T01:05:17;99718.98;;;13.17;100.00
55592;BME280;41454;53.396;-1.510;2023-07-22T01:07:44;99714.65;;;13.23;100.00
55592;BME280;41454;53.396;-1.510;2023-07-22T01:10:13;99712.65;;;13.38;100.00
55592;BME280;41454;53.396;-1.510;2023-07-22T01:12:45;99705.92;;;13.17;100.00
55592;BME280;41454;53.396;-1.510;2023-07-22T01:15:12;99696.62;;;13.34;100.00
55592;BME280;41454;53.396;-1.510;2023-07-22T01:17:40;99688.74;;;13.36;100.00
55592;BME280;41454;53.396;-1.510;2023-07-22T01:20:08;99676.20;;;13.35;100.00
55592;BME280;41454;53.396;-1.510;2023-07-22T01:22:36;99671.90;;;12.91;100.00
55592;BME280;41454;53.396;-1.510;2023-07-22T01:25:04;99670.73;;;13.53;100.00
55592;BME280;41454;53.396;-1.510;2023-07-22T01:27:32;99670.07;;;13.20;100.00
55592;BME280;41454;53.396;-1.510;2023-07-22T01:29:59;99673.00;;;12.80;100.00
55592;BME280;41454;53.396;-1.510;2023-07-22T01:32:26;99674.25;;;13.32;100.00
55592;BME280;41454;53.396;-1.510;2023-07-22T01:34:53;99671.33;;;13.06;100.00
55592;BME280;41454;53.396;-1.510;2023-07-22T01:37:19;99670.60;;;12.90;100.00
55592;BME280;41454;53.396;-1.510;2023-07-22T01:39:46;99669.22;;;13.51;100.00
55592;BME280;41454;53.396;-1.510;2023-07-22T01:42:13;99666.30;;;13.19;100.00
55592;BME280;41454;53.396;-1.510;2023-07-22T01:44:40;99662.77;;;13.44;100.00
55592;BME280;41454;53.396;-1.510;2023-07-22T01:47:07;99661.50;;;13.77;100.00
55592;BME280;41454;53.396;-1.510;2023-07-22T01:49:34;99655.14;;;13.47;100.00
55592;BME280;41454;53.396;-1.510;2023-07-22T01:52:01;99647.10;;;12.97;100.00
55592;BME280;41454;53.396;-1.510;2023-07-22T01:54:29;99639.83;;;12.78;100.00
55592;BME280;41454;53.396;-1.510;2023-07-22T01:56:55;99634.95;;;12.80;100.00
55592;BME280;41454;53.396;-1.510;2023-07-22T01:59:22;99627.12;;;12.71;100.00
55592;BME280;41454;53.396;-1.510;2023-07-22T02:01:49;99625.09;;;12.41;100.00
55592;BME280;41454;53.396;-1.510;2023-07-22T02:04:16;99619.60;;;13.12;100.00
55592;BME280;41454;53.396;-1.510;2023-07-22T02:06:43;99616.62;;;12.51;100.00
55592;BME280;41454;53.396;-1.510;2023-07-22T02:09:10;99618.07;;;12.63;100.00
55592;BME280;41454;53.396;-1.510;2023-07-22T02:11:36;99618.40;;;12.62;100.00
55592;BME280;41454;53.396;-1.510;2023-07-22T02:14:03;99616.63;;;11.73;100.00
55592;BME280;41454;53.396;-1.510;2023-07-22T02:16:30;99614.66;;;12.37;100.00
55592;BME280;41454;53.396;-1.510;2023-07-22T02:18:56;99610.47;;;12.07;100.00
55592;BME280;41454;53.396;-1.510;2023-07-22T02:21:23;99606.61;;;12.00;100.00
55592;BME280;41454;53.396;-1.510;2023-07-22T02:23:50;99602.42;;;11.90;100.00
55592;BME280;41454;53.396;-1.510;2023-07-22T02:26:17;99603.06;;;12.19;100.00
55592;BME280;41454;53.396;-1.510;2023-07-22T02:28:44;99600.50;;;10.94;100.00
55592;BME280;41454;53.396;-1.510;2023-07-22T02:31:11;99596.19;;;11.36;100.00
55592;BME280;41454;53.396;-1.510;2023-07-22T02:33:39;99593.36;;;11.71;100.00
55592;BME280;41454;53.396;-1.510;2023-07-22T02:36:06;99592.30;;;11.20;100.00
55592;BME280;41454;53.396;-1.510;2023-07-22T02:38:33;99592.02;;;10.68;100.00
55592;BME280;41454;53.396;-1.510;2023-07-22T02:41:03;99589.86;;;11.01;100.00
55592;BME280;41454;53.396;-1.510;2023-07-22T02:43:30;99587.87;;;11.21;100.00
55592;BME280;41454;53.396;-1.510;2023-07-22T02:45:56;99584.08;;;11.14;100.00
55592;BME280;41454;53.396;-1.510;2023-07-22T02:48:23;99585.46;;;11.14;100.00
55592;BME280;41454;53.396;-1.510;2023-07-22T02:50:50;99585.12;;;11.68;100.00
55592;BME280;41454;53.396;-1.510;2023-07-22T02:53:17;99576.02;;;11.96;100.00
55592;BME280;41454;53.396;-1.510;2023-07-22T02:55:43;99578.10;;;11.74;100.00
55592;BME280;41454;53.396;-1.510;2023-07-22T02:58:10;99574.54;;;11.93;100.00
55592;BME280;41454;53.396;-1.510;2023-07-22T03:00:37;99575.28;;;11.79;100.00
55592;BME280;41454;53.396;-1.510;2023-07-22T03:03:04;99574.01;;;11.72;100.00
55592;BME280;41454;53.396;-1.510;2023-07-22T03:05:31;99565.72;;;12.23;100.00
55592;BME280;41454;53.396;-1.510;2023-07-22T03:07:59;99558.99;;;12.24;100.00
55592;BME280;41454;53.396;-1.510;2023-07-22T03:10:26;99557.85;;;12.15;100.00
55592;BME280;41454;53.396;-1.510;2023-07-22T03:12:54;99554.29;;;12.98;100.00
55592;BME280;41454;53.396;-1.510;2023-07-22T03:15:22;99553.82;;;12.80;100.00
55592;BME280;41454;53.396;-1.510;2023-07-22T03:17:50;99553.20;;;12.88;100.00
55592;BME280;41454;53.396;-1.510;2023-07-22T03:20:16;99550.04;;;12.77;100.00
55592;BME280;41454;53.396;-1.510;2023-07-22T03:22:43;99550.30;;;13.40;100.00
55592;BME280;41454;53.396;-1.510;2023-07-22T03:25:11;99547.64;;;12.83;100.00
55592;BME280;41454;53.396;-1.510;2023-07-22T03:27:40;99548.21;;;13.30;100.00
55592;BME280;41454;53.396;-1.510;2023-07-22T03:30:08;99546.90;;;13.18;100.00
55592;BME280;41454;53.396;-1.510;2023-07-22T03:32:35;99544.07;;;13.05;100.00
55592;BME280;41454;53.396;-1.510;2023-07-22T03:35:02;99544.33;;;12.66;100.00
55592;BME280;41454;53.396;-1.510;2023-07-22T03:37:29;99543.17;;;11.90;100.00
55592;BME280;41454;53.396;-1.510;2023-07-22T03:39:57;99542.39;;;11.96;100.00
55592;BME280;41454;53.396;-1.510;2023-07-22T03:42:23;99536.96;;;12.45;100.00
55592;BME280;41454;53.396;-1.510;2023-07-22T03:44:50;99533.52;;;12.50;100.00
55592;BME280;41454;53.396;-1.510;2023-07-22T03:47:19;99529.98;;;11.95;100.00
55592;BME280;41454;53.396;-1.510;2023-07-22T03:49:46;99518.75;;;12.00;100.00
55592;BME280;41454;53.396;-1.510;2023-07-22T03:52:13;99519.93;;;12.54;100.00
55592;BME280;41454;53.396;-1.510;2023-07-22T03:54:40;99519.80;;;12.41;100.00
55592;BME280;41454;53.396;-1.510;2023-07-22T03:57:07;99521.89;;;12.50;100.00
55592;BME280;41454;53.396;-1.510;2023-07-22T03:59:34;99521.44;;;12.34;100.00
55592;BME280;41454;53.396;-1.510;2023-07-22T04:02:01;99519.48;;;12.77;100.00
55592;BME280;41454;53.396;-1.510;2023-07-22T04:04:29;99519.16;;;12.34;100.00
55592;BME280;41454;53.396;-1.510;2023-07-22T04:06:56;99507.83;;;12.45;100.00
55592;BME280;41454;53.396;-1.510;2023-07-22T04:09:23;99503.78;;;12.08;100.00
55592;BME280;41454;53.396;-1.510;2023-07-22T04:11:50;99504.05;;;12.48;100.00
55592;BME280;41454;53.396;-1.510;2023-07-22T04:14:18;99502.21;;;12.50;100.00
55592;BME280;41454;53.396;-1.510;2023-07-22T04:16:45;99497.97;;;12.09;100.00
55592;BME280;41454;53.396;-1.510;2023-07-22T04:19:12;99490.56;;;12.09;100.00
55592;BME280;41454;53.396;-1.510;2023-07-22T04:21:39;99486.05;;;11.66;100.00
55592;BME280;41454;53.396;-1.510;2023-07-22T04:24:06;99478.45;;;11.69;100.00
55592;BME280;41454;53.396;-1.510;2023-07-22T04:26:33;99468.47;;;11.90;100.00
55592;BME280;41454;53.396;-1.510;2023-07-22T04:28:59;99465.96;;;11.56;100.00
55592;BME280;41454;53.396;-1.510;2023-07-22T04:31:26;99465.77;;;11.18;100.00
55592;BME280;41454;53.396;-1.510;2023-07-22T04:33:53;99465.41;;;11.42;100.00
55592;BME280;41454;53.396;-1.510;2023-07-22T04:36:20;99467.43;;;11.29;100.00
55592;BME280;41454;53.396;-1.510;2023-07-22T04:38:47;99466.03;;;11.09;100.00
55592;BME280;41454;53.396;-1.510;2023-07-22T04:41:15;99458.99;;;11.20;100.00
55592;BME280;41454;53.396;-1.510;2023-07-22T04:43:41;99453.55;;;11.03;100.00
55592;BME280;41454;53.396;-1.510;2023-07-22T04:46:08;99456.40;;;11.12;100.00
55592;BME280;41454;53.396;-1.510;2023-07-22T04:48:35;99452.97;;;11.39;100.00
55592;BME280;41454;53.396;-1.510;2023-07-22T04:51:02;99459.35;;;11.68;100.00
55592;BME280;41454;53.396;-1.510;2023-07-22T04:53:29;99460.10;;;10.98;100.00
55592;BME280;41454;53.396;-1.510;2023-07-22T04:55:56;99459.73;;;11.08;100.00
55592;BME280;41454;53.396;-1.510;2023-07-22T04:58:23;99456.67;;;11.19;100.00
55592;BME280;41454;53.396;-1.510;2023-07-22T05:00:50;99454.85;;;11.57;100.00
55592;BME280;41454;53.396;-1.510;2023-07-22T05:03:18;99459.11;;;11.80;100.00
55592;BME280;41454;53.396;-1.510;2023-07-22T05:05:45;99459.60;;;11.83;100.00
55592;BME280;41454;53.396;-1.510;2023-07-22T05:08:12;99459.03;;;12.08;100.00
55592;BME280;41454;53.396;-1.510;2023-07-22T05:10:40;99449.83;;;12.33;100.00
55592;BME280;41454;53.396;-1.510;2023-07-22T05:13:07;99444.67;;;12.74;100.00
55592;BME280;41454;53.396;-1.510;2023-07-22T05:15:34;99444.32;;;12.34;100.00
55592;BME280;41454;53.396;-1.510;2023-07-22T05:18:02;99443.61;;;12.41;100.00
55592;BME280;41454;53.396;-1.510;2023-07-22T05:20:29;99438.99;;;12.32;100.00
55592;BME280;41454;53.396;-1.510;2023-07-22T05:22:56;99436.54;;;12.54;100.00
55592;BME280;41454;53.396;-1.510;2023-07-22T05:25:23;99435.98;;;12.45;100.00
55592;BME280;41454;53.396;-1.510;2023-07-22T05:27:50;99428.99;;;12.45;100.00
55592;BME280;41454;53.396;-1.510;2023-07-22T05:30:17;99424.21;;;12.66;100.00
55592;BME280;41454;53.396;-1.510;2023-07-22T05:32:43;99416.84;;;12.49;100.00
55592;BME280;41454;53.396;-1.510;2023-07-22T05:35:10;99422.22;;;11.94;100.00
55592;BME280;41454;53.396;-1.510;2023-07-22T05:37:37;99417.56;;;11.68;100.00
55592;BME280;41454;53.396;-1.510;2023-07-22T05:40:06;99416.05;;;12.31;100.00
55592;BME280;41454;53.396;-1.510;2023-07-22T05:42:33;99417.11;;;11.98;100.00
55592;BME280;41454;53.396;-1.510;2023-07-22T05:45:03;99414.25;;;11.51;100.00
55592;BME280;41454;53.396;-1.510;2023-07-22T05:47:30;99409.32;;;12.09;100.00
55592;BME280;41454;53.396;-1.510;2023-07-22T05:49:57;99407.13;;;11.87;100.00
55592;BME280;41454;53.396;-1.510;2023-07-22T05:52:23;99409.81;;;12.00;100.00
55592;BME280;41454;53.396;-1.510;2023-07-22T05:54:51;99408.75;;;11.70;100.00
55592;BME280;41454;53.396;-1.510;2023-07-22T05:57:18;99410.60;;;12.41;100.00
55592;BME280;41454;53.396;-1.510;2023-07-22T05:59:44;99406.86;;;12.09;100.00
55592;BME280;41454;53.396;-1.510;2023-07-22T06:02:14;99406.41;;;11.98;100.00
55592;BME280;41454;53.396;-1.510;2023-07-22T06:04:41;99396.75;;;12.37;100.00
55592;BME280;41454;53.396;-1.510;2023-07-22T06:07:08;99399.10;;;12.33;100.00
55592;BME280;41454;53.396;-1.510;2023-07-22T06:09:35;99391.31;;;12.03;100.00
55592;BME280;41454;53.396;-1.510;2023-07-22T06:12:02;99387.92;;;11.92;100.00
55592;BME280;41454;53.396;-1.510;2023-07-22T06:14:29;99384.96;;;12.69;100.00
55592;BME280;41454;53.396;-1.510;2023-07-22T06:16:56;99385.45;;;12.20;100.00
55592;BME280;41454;53.396;-1.510;2023-07-22T06:19:22;99376.48;;;12.30;100.00
55592;BME280;41454;53.396;-1.510;2023-07-22T06:21:49;99376.06;;;12.80;100.00
55592;BME280;41454;53.396;-1.510;2023-07-22T06:24:16;99367.47;;;12.73;100.00
55592;BME280;41454;53.396;-1.510;2023-07-22T06:26:43;99368.29;;;12.57;100.00
55592;BME280;41454;53.396;-1.510;2023-07-22T06:29:10;99369.33;;;12.09;100.00
55592;BME280;41454;53.396;-1.510;2023-07-22T06:31:37;99366.43;;;12.54;100.00
55592;BME280;41454;53.396;-1.510;2023-07-22T06:34:03;99365.16;;;12.39;100.00
55592;BME280;41454;53.396;-1.510;2023-07-22T06:36:30;99363.57;;;12.59;100.00
55592;BME280;41454;53.396;-1.510;2023-07-22T06:38:57;99363.00;;;12.78;100.00
55592;BME280;41454;53.396;-1.510;2023-07-22T06:41:23;99352.66;;;13.13;100.00
55592;BME280;41454;53.396;-1.510;2023-07-22T06:43:51;99352.61;;;13.16;100.00
55592;BME280;41454;53.396;-1.510;2023-07-22T06:46:18;99348.57;;;12.90;100.00
55592;BME280;41454;53.396;-1.510;2023-07-22T06:48:44;99353.47;;;13.16;100.00
55592;BME280;41454;53.396;-1.510;2023-07-22T06:51:12;99355.22;;;13.16;100.00
55592;BME280;41454;53.396;-1.510;2023-07-22T06:53:41;99352.00;;;12.77;100.00
55592;BME280;41454;53.396;-1.510;2023-07-22T06:56:08;99352.77;;;12.37;100.00
55592;BME280;41454;53.396;-1.510;2023-07-22T06:58:35;99347.66;;;12.65;100.00
55592;BME280;41454;53.396;-1.510;2023-07-22T07:01:01;99346.33;;;12.69;100.00
55592;BME280;41454;53.396;-1.510;2023-07-22T07:03:29;99343.29;;;12.78;100.00
55592;BME280;41454;53.396;-1.510;2023-07-22T07:05:57;99345.03;;;12.71;100.00
55592;BME280;41454;53.396;-1.510;2023-07-22T07:08:24;99341.61;;;12.85;100.00
55592;BME280;41454;53.396;-1.510;2023-07-22T07:10:53;99344.72;;;13.17;100.00
55592;BME280;41454;53.396;-1.510;2023-07-22T07:13:20;99336.89;;;12.58;100.00
55592;BME280;41454;53.396;-1.510;2023-07-22T07:15:48;99338.41;;;12.36;100.00
55592;BME280;41454;53.396;-1.510;2023-07-22T07:18:15;99339.95;;;12.25;100.00
55592;BME280;41454;53.396;-1.510;2023-07-22T07:20:42;99340.91;;;12.25;100.00
55592;BME280;41454;53.396;-1.510;2023-07-22T07:23:09;99338.18;;;12.64;100.00
55592;BME280;41454;53.396;-1.510;2023-07-22T07:25:36;99337.05;;;12.45;100.00
55592;BME280;41454;53.396;-1.510;2023-07-22T07:28:03;99330.06;;;12.53;100.00
55592;BME280;41454;53.396;-1.510;2023-07-22T07:30:31;99324.79;;;12.54;100.00
55592;BME280;41454;53.396;-1.510;2023-07-22T07:32:58;99326.61;;;12.56;100.00
55592;BME280;41454;53.396;-1.510;2023-07-22T07:35:25;99323.43;;;12.48;100.00
55592;BME280;41454;53.396;-1.510;2023-07-22T07:37:52;99321.95;;;12.83;100.00
55592;BME280;41454;53.396;-1.510;2023-07-22T07:40:19;99312.04;;;12.90;100.00
55592;BME280;41454;53.396;-1.510;2023-07-22T07:42:45;99310.79;;;12.64;100.00
55592;BME280;41454;53.396;-1.510;2023-07-22T07:45:12;99313.15;;;12.69;100.00
55592;BME280;41454;53.396;-1.510;2023-07-22T07:47:39;99311.78;;;12.49;100.00
55592;BME280;41454;53.396;-1.510;2023-07-22T07:50:07;99307.82;;;12.39;100.00
55592;BME280;41454;53.396;-1.510;2023-07-22T07:52:34;99311.25;;;12.59;100.00
55592;BME280;41454;53.396;-1.510;2023-07-22T07:55:01;99307.54;;;13.07;100.00
55592;BME280;41454;53.396;-1.510;2023-07-22T07:57:28;99306.07;;;12.75;100.00
55592;BME280;41454;53.396;-1.510;2023-07-22T07:59:55;99302.38;;;12.34;100.00
55592;BME280;41454;53.396;-1.510;2023-07-22T08:02:22;99306.84;;;12.61;100.00
55592;BME280;41454;53.396;-1.510;2023-07-22T08:04:49;99307.29;;;12.06;100.00
55592;BME280;41454;53.396;-1.510;2023-07-22T08:07:16;99302.59;;;12.30;100.00
55592;BME280;41454;53.396;-1.510;2023-07-22T08:09:43;99306.83;;;12.13;100.00
55592;BME280;41454;53.396;-1.510;2023-07-22T08:12:10;99302.83;;;12.68;100.00
55592;BME280;41454;53.396;-1.510;2023-07-22T08:14:37;99304.06;;;12.45;100.00
55592;BME280;41454;53.396;-1.510;2023-07-22T08:17:04;99300.08;;;12.60;100.00
55592;BME280;41454;53.396;-1.510;2023-07-22T08:19:31;99300.91;;;12.45;100.00
55592;BME280;41454;53.396;-1.510;2023-07-22T08:21:58;99304.76;;;12.47;100.00
55592;BME280;41454;53.396;-1.510;2023-07-22T08:24:25;99301.72;;;12.44;100.00
55592;BME280;41454;53.396;-1.510;2023-07-22T08:26:52;99302.61;;;12.72;100.00
55592;BME280;41454;53.396;-1.510;2023-07-22T08:29:18;99300.60;;;13.12;100.00
55592;BME280;41454;53.396;-1.510;2023-07-22T08:31:46;99301.46;;;12.81;100.00
55592;BME280;41454;53.396;-1.510;2023-07-22T08:34:13;99291.58;;;12.56;100.00
55592;BME280;41454;53.396;-1.510;2023-07-22T08:36:40;99292.70;;;12.29;100.00
55592;BME280;41454;53.396;-1.510;2023-07-22T08:39:08;99292.55;;;12.14;100.00
55592;BME280;41454;53.396;-1.510;2023-07-22T08:41:36;99291.45;;;12.77;100.00
55592;BME280;41454;53.396;-1.510;2023-07-22T08:44:04;99295.67;;;12.78;100.00
55592;BME280;41454;53.396;-1.510;2023-07-22T08:46:33;99293.65;;;12.95;100.00
55592;BME280;41454;53.396;-1.510;2023-07-22T08:49:01;99294.67;;;12.73;100.00
55592;BME280;41454;53.396;-1.510;2023-07-22T08:51:29;99290.06;;;12.60;100.00
55592;BME280;41454;53.396;-1.510;2023-07-22T08:53:57;99285.54;;;12.43;100.00
55592;BME280;41454;53.396;-1.510;2023-07-22T08:56:24;99284.15;;;12.74;100.00
55592;BME280;41454;53.396;-1.510;2023-07-22T08:58:52;99284.85;;;12.95;100.00
55592;BME280;41454;53.396;-1.510;2023-07-22T09:01:20;99279.52;;;12.26;100.00
55592;BME280;41454;53.396;-1.510;2023-07-22T09:03:49;99280.96;;;12.10;100.00
55592;BME280;41454;53.396;-1.510;2023-07-22T09:06:16;99277.60;;;11.87;100.00
55592;BME280;41454;53.396;-1.510;2023-07-22T09:08:45;99279.86;;;12.10;100.00
55592;BME280;41454;53.396;-1.510;2023-07-22T09:11:12;99274.33;;;12.42;100.00
55592;BME280;41454;53.396;-1.510;2023-07-22T09:13:40;99271.96;;;12.98;100.00
55592;BME280;41454;53.396;-1.510;2023-07-22T09:16:09;99272.57;;;13.14;100.00
55592;BME280;41454;53.396;-1.510;2023-07-22T09:18:37;99269.60;;;12.82;100.00
55592;BME280;41454;53.396;-1.510;2023-07-22T09:21:04;99271.94;;;12.33;100.00
55592;BME280;41454;53.396;-1.510;2023-07-22T09:23:32;99273.48;;;12.80;100.00
55592;BME280;41454;53.396;-1.510;2023-07-22T09:26:08;99268.18;;;12.96;100.00
55592;BME280;41454;53.396;-1.510;2023-07-22T09:28:51;99271.37;;;13.13;100.00
55592;BME280;41454;53.396;-1.510;2023-07-22T09:31:18;99271.58;;;12.91;100.00
55592;BME280;41454;53.396;-1.510;2023-07-22T09:33:46;99271.21;;;13.30;100.00
55592;BME280;41454;53.396;-1.510;2023-07-22T09:36:13;99272.19;;;13.20;100.00
55592;BME280;41454;53.396;-1.510;2023-07-22T09:38:41;99267.44;;;13.20;100.00
55592;BME280;41454;53.396;-1.510;2023-07-22T09:41:08;99268.92;;;13.23;100.00
55592;BME280;41454;53.396;-1.510;2023-07-22T09:43:36;99268.96;;;13.70;100.00
55592;BME280;41454;53.396;-1.510;2023-07-22T09:46:08;99270.30;;;13.85;100.00
55592;BME280;41454;53.396;-1.510;2023-07-22T09:48:44;99271.83;;;13.18;100.00
55592;BME280;41454;53.396;-1.510;2023-07-22T09:51:12;99265.74;;;13.53;100.00
55592;BME280;41454;53.396;-1.510;2023-07-22T09:53:45;99267.44;;;13.34;100.00
55592;BME280;41454;53.396;-1.510;2023-07-22T09:56:13;99268.24;;;13.04;100.00
55592;BME280;41454;53.396;-1.510;2023-07-22T09:58:41;99264.13;;;13.35;100.00
55592;BME280;41454;53.396;-1.510;2023-07-22T10:01:12;99261.53;;;12.78;100.00
55592;BME280;41454;53.396;-1.510;2023-07-22T10:03:43;99260.48;;;14.00;100.00
55592;BME280;41454;53.396;-1.510;2023-07-22T10:06:13;99259.08;;;14.09;100.00
55592;BME280;41454;53.396;-1.510;2023-07-22T10:08:44;99256.77;;;13.96;100.00
55592;BME280;41454;53.396;-1.510;2023-07-22T10:11:13;99256.66;;;14.13;100.00
55592;BME280;41454;53.396;-1.510;2023-07-22T10:13:41;99251.59;;;14.21;100.00
55592;BME280;41454;53.396;-1.510;2023-07-22T10:16:08;99253.55;;;13.64;100.00
55592;BME280;41454;53.396;-1.510;2023-07-22T10:18:35;99247.29;;;13.72;100.00
55592;BME280;41454;53.396;-1.510;2023-07-22T10:21:03;99246.03;;;13.95;100.00
55592;BME280;41454;53.396;-1.510;2023-07-22T10:23:31;99242.53;;;14.05;100.00
55592;BME280;41454;53.396;-1.510;2023-07-22T10:25:59;99240.82;;;13.92;100.00
55592;BME280;41454;53.396;-1.510;2023-07-22T10:28:26;99236.00;;;14.52;100.00
55592;BME280;41454;53.396;-1.510;2023-07-22T10:30:55;99232.04;;;14.06;100.00
55592;BME280;41454;53.396;-1.510;2023-07-22T10:33:22;99231.07;;;14.02;100.00
55592;BME280;41454;53.396;-1.510;2023-07-22T10:36:03;99230.02;;;14.17;100.00
55592;BME280;41454;53.396;-1.510;2023-07-22T10:38:31;99227.46;;;14.11;100.00
55592;BME280;41454;53.396;-1.510;2023-07-22T10:40:59;99222.30;;;13.77;100.00
55592;BME280;41454;53.396;-1.510;2023-07-22T10:43:29;99223.78;;;13.95;100.00
55592;BME280;41454;53.396;-1.510;2023-07-22T10:45:58;99218.68;;;14.38;100.00
55592;BME280;41454;53.396;-1.510;2023-07-22T10:48:27;99220.23;;;13.83;100.00
55592;BME280;41454;53.396;-1.510;2023-07-22T10:51:05;99219.24;;;14.05;100.00
55592;BME280;41454;53.396;-1.510;2023-07-22T10:53:36;99218.68;;;14.45;100.00
55592;BME280;41454;53.396;-1.510;2023-07-22T10:56:07;99210.26;;;14.36;100.00
55592;BME280;41454;53.396;-1.510;2023-07-22T10:58:56;99211.68;;;14.64;100.00
55592;BME280;41454;53.396;-1.510;2023-07-22T11:01:30;99207.83;;;14.30;100.00
55592;BME280;41454;53.396;-1.510;2023-07-22T11:04:21;99207.79;;;13.68;100.00
55592;BME280;41454;53.396;-1.510;2023-07-22T11:06:54;99198.93;;;14.38;100.00
55592;BME280;41454;53.396;-1.510;2023-07-22T11:09:38;99200.78;;;14.29;100.00
55592;BME280;41454;53.396;-1.510;2023-07-22T11:12:07;99200.78;;;13.74;100.00
55592;BME280;41454;53.396;-1.510;2023-07-22T11:14:38;99197.84;;;14.06;100.00
55592;BME280;41454;53.396;-1.510;2023-07-22T11:17:06;99198.05;;;14.17;100.00
55592;BME280;41454;53.396;-1.510;2023-07-22T11:19:34;99195.87;;;13.48;100.00
55592;BME280;41454;53.396;-1.510;2023-07-22T11:22:02;99193.68;;;14.08;100.00
55592;BME280;41454;53.396;-1.510;2023-07-22T11:24:29;99191.77;;;14.02;100.00
55592;BME280;41454;53.396;-1.510;2023-07-22T11:26:56;99188.93;;;14.18;100.00
55592;BME280;41454;53.396;-1.510;2023-07-22T11:29:23;99185.04;;;14.14;100.00
55592;BME280;41454;53.396;-1.510;2023-07-22T11:31:51;99180.66;;;13.98;100.00
55592;BME280;41454;53.396;-1.510;2023-07-22T11:34:19;99173.74;;;14.07;100.00
55592;BME280;41454;53.396;-1.510;2023-07-22T11:36:47;99174.87;;;14.26;100.00
55592;BME280;41454;53.396;-1.510;2023-07-22T11:39:17;99170.79;;;14.38;100.00
55592;BME280;41454;53.396;-1.510;2023-07-22T11:41:45;99166.40;;;14.18;100.00
55592;BME280;41454;53.396;-1.510;2023-07-22T11:44:14;99164.71;;;14.29;100.00
55592;BME280;41454;53.396;-1.510;2023-07-22T11:46:53;99160.39;;;14.41;100.00
55592;BME280;41454;53.396;-1.510;2023-07-22T11:49:23;99157.07;;;14.71;100.00
55592;BME280;41454;53.396;-1.510;2023-07-22T11:51:50;99153.00;;;15.18;100.00
55592;BME280;41454;53.396;-1.510;2023-07-22T11:54:20;99147.95;;;15.67;100.00
55592;BME280;41454;53.396;-1.510;2023-07-22T11:56:47;99147.51;;;15.80;100.00
55592;BME280;41454;53.396;-1.510;2023-07-22T11:59:14;99142.33;;;16.02;100.00
55592;BME280;41454;53.396;-1.510;2023-07-22T12:01:44;99139.61;;;15.52;100.00
55592;BME280;41454;53.396;-1.510;2023-07-22T12:04:13;99140.02;;;15.49;100.00
55592;BME280;41454;53.396;-1.510;2023-07-22T12:06:41;99137.25;;;14.85;100.00
55592;BME280;41454;53.396;-1.510;2023-07-22T12:09:08;99133.18;;;14.70;100.00
55592;BME280;41454;53.396;-1.510;2023-07-22T12:11:35;99123.75;;;15.14;100.00
55592;BME280;41454;53.396;-1.510;2023-07-22T12:14:11;99126.23;;;15.32;100.00
55592;BME280;41454;53.396;-1.510;2023-07-22T12:16:40;99125.41;;;15.43;100.00
55592;BME280;41454;53.396;-1.510;2023-07-22T12:19:09;99124.61;;;16.25;100.00
55592;BME280;41454;53.396;-1.510;2023-07-22T12:21:36;99123.82;;;15.76;100.00
55592;BME280;41454;53.396;-1.510;2023-07-22T12:24:04;99118.14;;;15.94;100.00
55592;BME280;41454;53.396;-1.510;2023-07-22T12:26:31;99116.03;;;15.58;100.00
55592;BME280;41454;53.396;-1.510;2023-07-22T12:28:58;99117.82;;;15.61;100.00
55592;BME280;41454;53.396;-1.510;2023-07-22T12:31:25;99114.95;;;16.19;100.00
55592;BME280;41454;53.396;-1.510;2023-07-22T12:33:52;99116.83;;;15.92;100.00
55592;BME280;41454;53.396;-1.510;2023-07-22T12:36:19;99118.16;;;15.80;100.00
55592;BME280;41454;53.396;-1.510;2023-07-22T12:38:46;99115.93;;;15.35;100.00
55592;BME280;41454;53.396;-1.510;2023-07-22T12:41:12;99117.28;;;15.24;100.00
55592;BME280;41454;53.396;-1.510;2023-07-22T12:43:39;99116.24;;;15.60;100.00